sensor_id;sensor_type;location;lat;lon;timestamp;pressure;altitude;pressure_sealevel;temperature;humidity
24160;BME280;62385;41.594;23.808;2023-04-09T00:01:08;95641.03;;;5.77;69.24
24160;BME280;62385;41.594;23.808;2023-04-09T00:03:35;95644.47;;;5.48;70.34
24160;BME280;62385;41.594;23.808;2023-04-09T00:06:02;95653.69;;;5.24;71.15
24160;BME280;62385;41.594;23.808;2023-04-09T00:08:27;95649.84;;;5.47;70.41
24160;BME280;62385;41.594;23.808;2023-04-09T00:10:53;95650.84;;;5.55;70.74
24160;BME280;62385;41.594;23.808;2023-04-09T00:13:20;95654.31;;;5.66;70.14
24160;BME280;62385;41.594;23.808;2023-04-09T00:15:46;95653.91;;;5.80;70.14
24160;BME280;62385;41.594;23.808;2023-04-09T00:18:12;95649.88;;;5.76;69.90
24160;BME280;62385;41.594;23.808;2023-04-09T00:20:38;95652.81;;;6.30;68.26
24160;BME280;62385;41.594;23.808;2023-04-09T00:23:04;95654.88;;;6.46;67.11
24160;BME280;62385;41.594;23.808;2023-04-09T00:25:30;95663.66;;;6.18;67.83
24160;BME280;62385;41.594;23.808;2023-04-09T00:27:56;95659.66;;;6.23;67.76
24160;BME280;62385;41.594;23.808;2023-04-09T00:30:21;95666.56;;;6.34;67.74
24160;BME280;62385;41.594;23.808;2023-04-09T00:32:48;95672.91;;;5.74;68.46
24160;BME280;62385;41.594;23.808;2023-04-09T00:35:14;95669.81;;;5.49;69.43
24160;BME280;62385;41.594;23.808;2023-04-09T00:37:42;95671.88;;;5.36;70.41
24160;BME280;62385;41.594;23.808;2023-04-09T00:40:08;95678.38;;;5.32;70.79
24160;BME280;62385;41.594;23.808;2023-04-09T00:42:34;95670.91;;;5.47;70.75
24160;BME280;62385;41.594;23.808;2023-04-09T00:45:00;95670.13;;;5.85;69.19
24160;BME280;62385;41.594;23.808;2023-04-09T00:47:28;95668.34;;;5.85;69.11
24160;BME280;62385;41.594;23.808;2023-04-09T00:49:56;95661.03;;;5.89;68.79
24160;BME280;62385;41.594;23.808;2023-04-09T00:52:23;95668.38;;;5.26;70.40
24160;BME280;62385;41.594;23.808;2023-04-09T00:54:49;95660.94;;;5.41;70.85
24160;BME280;62385;41.594;23.808;2023-04-09T00:57:16;95669.28;;;5.46;69.96
24160;BME280;62385;41.594;23.808;2023-04-09T00:59:42;95661.53;;;5.54;70.29
24160;BME280;62385;41.594;23.808;2023-04-09T01:02:08;95664.72;;;5.57;70.21
24160;BME280;62385;41.594;23.808;2023-04-09T01:04:34;95663.97;;;5.36;70.16
24160;BME280;62385;41.594;23.808;2023-04-09T01:07:27;95662.59;;;5.42;70.52
24160;BME280;62385;41.594;23.808;2023-04-09T01:10:00;95661.13;;;5.58;70.13
24160;BME280;62385;41.594;23.808;2023-04-09T01:15:24;95650.47;;;6.27;68.36
24160;BME280;62385;41.594;23.808;2023-04-09T01:17:58;95654.66;;;6.11;68.97
24160;BME280;62385;41.594;23.808;2023-04-09T01:20:34;95660.06;;;5.99;68.37
24160;BME280;62385;41.594;23.808;2023-04-09T01:29:04;95666.03;;;5.92;68.24
24160;BME280;62385;41.594;23.808;2023-04-09T01:31:35;95667.09;;;5.80;69.64
24160;BME280;62385;41.594;23.808;2023-04-09T01:34:02;95655.50;;;6.11;68.62
24160;BME280;62385;41.594;23.808;2023-04-09T01:36:30;95669.78;;;5.40;69.55
24160;BME280;62385;41.594;23.808;2023-04-09T01:38:59;95661.94;;;5.09;70.17
24160;BME280;62385;41.594;23.808;2023-04-09T01:41:25;95666.13;;;5.12;70.74
24160;BME280;62385;41.594;23.808;2023-04-09T01:43:52;95663.59;;;5.10;70.68
24160;BME280;62385;41.594;23.808;2023-04-09T01:46:20;95658.38;;;5.20;70.88
24160;BME280;62385;41.594;23.808;2023-04-09T01:48:46;95668.59;;;5.04;71.63
24160;BME280;62385;41.594;23.808;2023-04-09T01:51:12;95652.69;;;5.15;71.72
24160;BME280;62385;41.594;23.808;2023-04-09T01:53:39;95656.25;;;5.64;70.49
24160;BME280;62385;41.594;23.808;2023-04-09T01:56:06;95663.22;;;5.74;70.27
24160;BME280;62385;41.594;23.808;2023-04-09T01:58:32;95655.34;;;6.03;68.73
24160;BME280;62385;41.594;23.808;2023-04-09T02:01:09;95664.91;;;5.94;69.18
24160;BME280;62385;41.594;23.808;2023-04-09T02:03:46;95661.25;;;5.76;69.83
24160;BME280;62385;41.594;23.808;2023-04-09T02:08:48;95660.22;;;5.29;71.81
24160;BME280;62385;41.594;23.808;2023-04-09T02:11:17;95659.66;;;5.35;71.31
24160;BME280;62385;41.594;23.808;2023-04-09T02:13:44;95648.22;;;5.46;71.52
24160;BME280;62385;41.594;23.808;2023-04-09T02:16:12;95655.03;;;5.77;70.90
24160;BME280;62385;41.594;23.808;2023-04-09T02:18:39;95657.13;;;6.22;68.89
24160;BME280;62385;41.594;23.808;2023-04-09T02:21:06;95653.53;;;6.23;68.54
24160;BME280;62385;41.594;23.808;2023-04-09T02:23:32;95646.50;;;6.04;69.28
24160;BME280;62385;41.594;23.808;2023-04-09T02:25:58;95653.97;;;5.89;69.81
24160;BME280;62385;41.594;23.808;2023-04-09T02:28:24;95659.88;;;5.82;70.03
24160;BME280;62385;41.594;23.808;2023-04-09T02:30:50;95648.00;;;5.97;69.55
24160;BME280;62385;41.594;23.808;2023-04-09T02:33:16;95648.25;;;6.13;68.74
24160;BME280;62385;41.594;23.808;2023-04-09T02:35:41;95646.75;;;6.01;68.85
24160;BME280;62385;41.594;23.808;2023-04-09T02:38:08;95654.50;;;5.93;69.52
24160;BME280;62385;41.594;23.808;2023-04-09T02:40:39;95649.63;;;5.79;69.78
24160;BME280;62385;41.594;23.808;2023-04-09T02:43:05;95645.13;;;5.41;71.04
24160;BME280;62385;41.594;23.808;2023-04-09T02:45:38;95646.44;;;5.85;69.94
24160;BME280;62385;41.594;23.808;2023-04-09T02:48:04;95641.91;;;6.16;68.57
24160;BME280;62385;41.594;23.808;2023-04-09T02:50:33;95637.59;;;6.24;68.87
24160;BME280;62385;41.594;23.808;2023-04-09T02:53:00;95637.72;;;6.13;68.80
24160;BME280;62385;41.594;23.808;2023-04-09T02:55:26;95635.50;;;6.18;69.29
24160;BME280;62385;41.594;23.808;2023-04-09T02:57:52;95637.84;;;6.31;68.28
24160;BME280;62385;41.594;23.808;2023-04-09T03:00:17;95640.09;;;6.16;69.00
24160;BME280;62385;41.594;23.808;2023-04-09T03:02:43;95645.75;;;6.21;69.48
24160;BME280;62385;41.594;23.808;2023-04-09T03:05:09;95652.94;;;5.62;71.29
24160;BME280;62385;41.594;23.808;2023-04-09T03:07:34;95648.75;;;5.59;70.68
24160;BME280;62385;41.594;23.808;2023-04-09T03:10:00;95633.19;;;5.96;69.47
24160;BME280;62385;41.594;23.808;2023-04-09T03:12:26;95645.16;;;5.50;70.40
24160;BME280;62385;41.594;23.808;2023-04-09T03:14:51;95648.66;;;5.11;71.09
24160;BME280;62385;41.594;23.808;2023-04-09T03:17:18;95656.72;;;5.19;71.52
24160;BME280;62385;41.594;23.808;2023-04-09T03:19:44;95653.19;;;5.49;70.14
24160;BME280;62385;41.594;23.808;2023-04-09T03:22:10;95645.28;;;5.49;70.33
24160;BME280;62385;41.594;23.808;2023-04-09T03:24:36;95645.50;;;5.17;71.07
24160;BME280;62385;41.594;23.808;2023-04-09T03:27:04;95639.56;;;5.34;70.28
24160;BME280;62385;41.594;23.808;2023-04-09T03:29:31;95642.00;;;5.66;69.25
24160;BME280;62385;41.594;23.808;2023-04-09T03:31:57;95652.44;;;5.28;70.06
24160;BME280;62385;41.594;23.808;2023-04-09T03:34:23;95651.41;;;5.09;70.53
24160;BME280;62385;41.594;23.808;2023-04-09T03:36:52;95650.28;;;5.02;70.50
24160;BME280;62385;41.594;23.808;2023-04-09T03:39:27;95664.63;;;4.89;71.74
24160;BME280;62385;41.594;23.808;2023-04-09T03:41:58;95662.63;;;4.72;71.91
24160;BME280;62385;41.594;23.808;2023-04-09T03:44:27;95656.03;;;4.56;72.16
24160;BME280;62385;41.594;23.808;2023-04-09T03:46:59;95664.66;;;4.38;73.14
24160;BME280;62385;41.594;23.808;2023-04-09T03:49:25;95666.69;;;4.34;73.31
24160;BME280;62385;41.594;23.808;2023-04-09T03:51:53;95656.16;;;4.76;72.17
24160;BME280;62385;41.594;23.808;2023-04-09T03:54:19;95663.44;;;5.02;72.30
24160;BME280;62385;41.594;23.808;2023-04-09T03:56:45;95665.34;;;5.31;71.78
24160;BME280;62385;41.594;23.808;2023-04-09T03:59:13;95659.81;;;5.34;71.70
24160;BME280;62385;41.594;23.808;2023-04-09T04:01:43;95650.66;;;5.28;72.17
24160;BME280;62385;41.594;23.808;2023-04-09T04:04:08;95651.25;;;5.41;71.74
24160;BME280;62385;41.594;23.808;2023-04-09T04:06:39;95658.50;;;5.78;70.62
24160;BME280;62385;41.594;23.808;2023-04-09T04:09:25;95649.47;;;6.47;68.59
24160;BME280;62385;41.594;23.808;2023-04-09T04:12:00;95652.16;;;6.28;69.22
24160;BME280;62385;41.594;23.808;2023-04-09T04:14:41;95651.72;;;6.23;69.73
24160;BME280;62385;41.594;23.808;2023-04-09T04:17:17;95648.69;;;6.28;68.66
24160;BME280;62385;41.594;23.808;2023-04-09T04:19:42;95643.97;;;6.02;69.87
24160;BME280;62385;41.594;23.808;2023-04-09T04:22:08;95658.81;;;5.94;69.79
24160;BME280;62385;41.594;23.808;2023-04-09T04:24:38;95661.84;;;6.18;70.00
24160;BME280;62385;41.594;23.808;2023-04-09T04:27:03;95663.25;;;6.41;69.14
24160;BME280;62385;41.594;23.808;2023-04-09T04:29:33;95664.75;;;6.34;68.60
24160;BME280;62385;41.594;23.808;2023-04-09T04:32:00;95671.03;;;6.33;68.70
24160;BME280;62385;41.594;23.808;2023-04-09T04:34:31;95661.41;;;6.52;68.00
24160;BME280;62385;41.594;23.808;2023-04-09T04:37:18;95662.09;;;6.54;68.38
24160;BME280;62385;41.594;23.808;2023-04-09T04:39:43;95670.56;;;6.57;68.54
24160;BME280;62385;41.594;23.808;2023-04-09T04:42:13;95669.78;;;6.37;68.48
24160;BME280;62385;41.594;23.808;2023-04-09T04:44:38;95665.75;;;6.89;67.30
24160;BME280;62385;41.594;23.808;2023-04-09T04:47:11;95671.41;;;6.58;68.26
24160;BME280;62385;41.594;23.808;2023-04-09T04:49:37;95679.75;;;6.05;70.49
24160;BME280;62385;41.594;23.808;2023-04-09T04:52:05;95672.66;;;6.34;69.90
24160;BME280;62385;41.594;23.808;2023-04-09T04:54:32;95672.84;;;6.79;68.07
24160;BME280;62385;41.594;23.808;2023-04-09T04:56:58;95671.88;;;7.27;66.94
24160;BME280;62385;41.594;23.808;2023-04-09T04:59:36;95676.81;;;7.12;67.65
24160;BME280;62385;41.594;23.808;2023-04-09T05:02:04;95682.13;;;6.93;67.72
24160;BME280;62385;41.594;23.808;2023-04-09T05:04:37;95673.25;;;7.21;67.76
24160;BME280;62385;41.594;23.808;2023-04-09T05:07:04;95669.09;;;7.28;67.18
24160;BME280;62385;41.594;23.808;2023-04-09T05:09:30;95679.31;;;7.41;66.64
24160;BME280;62385;41.594;23.808;2023-04-09T05:11:59;95670.34;;;7.52;66.20
24160;BME280;62385;41.594;23.808;2023-04-09T05:14:25;95672.28;;;7.50;66.85
24160;BME280;62385;41.594;23.808;2023-04-09T05:16:51;95676.13;;;7.65;66.64
24160;BME280;62385;41.594;23.808;2023-04-09T05:19:20;95670.69;;;7.84;65.82
24160;BME280;62385;41.594;23.808;2023-04-09T05:21:52;95679.50;;;7.75;65.92
24160;BME280;62385;41.594;23.808;2023-04-09T05:24:20;95673.41;;;7.92;65.88
24160;BME280;62385;41.594;23.808;2023-04-09T05:26:46;95681.44;;;8.00;65.55
24160;BME280;62385;41.594;23.808;2023-04-09T05:29:12;95684.53;;;8.13;65.11
24160;BME280;62385;41.594;23.808;2023-04-09T05:31:37;95685.97;;;8.25;65.21
24160;BME280;62385;41.594;23.808;2023-04-09T05:34:09;95677.06;;;8.26;65.09
24160;BME280;62385;41.594;23.808;2023-04-09T05:36:46;95686.97;;;8.07;66.17
24160;BME280;62385;41.594;23.808;2023-04-09T05:39:12;95690.66;;;8.14;66.80
24160;BME280;62385;41.594;23.808;2023-04-09T05:41:37;95692.16;;;8.16;66.86
24160;BME280;62385;41.594;23.808;2023-04-09T05:44:36;95685.94;;;8.35;65.69
24160;BME280;62385;41.594;23.808;2023-04-09T05:47:13;95691.88;;;8.37;66.29
24160;BME280;62385;41.594;23.808;2023-04-09T05:49:45;95690.16;;;8.46;65.84
24160;BME280;62385;41.594;23.808;2023-04-09T05:52:14;95695.59;;;8.44;65.37
24160;BME280;62385;41.594;23.808;2023-04-09T05:54:41;95688.19;;;8.48;65.47
24160;BME280;62385;41.594;23.808;2023-04-09T05:57:08;95690.50;;;8.68;64.44
24160;BME280;62385;41.594;23.808;2023-04-09T05:59:36;95700.25;;;8.68;64.71
24160;BME280;62385;41.594;23.808;2023-04-09T06:02:02;95686.00;;;8.61;65.08
24160;BME280;62385;41.594;23.808;2023-04-09T06:04:27;95696.69;;;8.77;65.08
24160;BME280;62385;41.594;23.808;2023-04-09T06:06:53;95702.59;;;8.97;64.90
24160;BME280;62385;41.594;23.808;2023-04-09T06:09:19;95704.16;;;8.82;64.28
24160;BME280;62385;41.594;23.808;2023-04-09T06:11:45;95705.97;;;8.81;64.32
24160;BME280;62385;41.594;23.808;2023-04-09T06:14:11;95698.25;;;8.88;64.20
24160;BME280;62385;41.594;23.808;2023-04-09T06:16:40;95693.56;;;9.07;63.40
24160;BME280;62385;41.594;23.808;2023-04-09T06:19:06;95703.53;;;9.13;63.16
24160;BME280;62385;41.594;23.808;2023-04-09T06:21:31;95708.69;;;9.49;62.70
24160;BME280;62385;41.594;23.808;2023-04-09T06:23:57;95703.59;;;9.55;62.29
24160;BME280;62385;41.594;23.808;2023-04-09T06:26:23;95689.69;;;9.61;62.28
24160;BME280;62385;41.594;23.808;2023-04-09T06:28:48;95680.59;;;9.64;62.20
24160;BME280;62385;41.594;23.808;2023-04-09T06:31:14;95686.94;;;9.79;60.85
24160;BME280;62385;41.594;23.808;2023-04-09T06:33:39;95691.09;;;9.90;60.87
24160;BME280;62385;41.594;23.808;2023-04-09T06:36:05;95680.47;;;9.73;61.75
24160;BME280;62385;41.594;23.808;2023-04-09T06:38:31;95686.09;;;10.21;61.01
24160;BME280;62385;41.594;23.808;2023-04-09T06:40:56;95693.69;;;10.15;61.53
24160;BME280;62385;41.594;23.808;2023-04-09T06:43:22;95693.56;;;10.33;60.40
24160;BME280;62385;41.594;23.808;2023-04-09T06:45:49;95688.00;;;10.10;62.11
24160;BME280;62385;41.594;23.808;2023-04-09T06:48:15;95680.47;;;10.40;61.06
24160;BME280;62385;41.594;23.808;2023-04-09T06:50:43;95681.81;;;10.84;60.21
24160;BME280;62385;41.594;23.808;2023-04-09T06:53:09;95689.28;;;10.81;58.87
24160;BME280;62385;41.594;23.808;2023-04-09T06:55:34;95689.25;;;10.48;59.71
24160;BME280;62385;41.594;23.808;2023-04-09T06:58:00;95688.34;;;11.29;58.33
24160;BME280;62385;41.594;23.808;2023-04-09T07:00:27;95686.78;;;10.39;59.92
24160;BME280;62385;41.594;23.808;2023-04-09T07:02:52;95683.63;;;10.43;59.04
24160;BME280;62385;41.594;23.808;2023-04-09T07:05:18;95677.75;;;11.21;57.16
24160;BME280;62385;41.594;23.808;2023-04-09T07:07:44;95677.75;;;11.21;56.92
24160;BME280;62385;41.594;23.808;2023-04-09T07:10:10;95673.59;;;11.73;56.09
24160;BME280;62385;41.594;23.808;2023-04-09T07:12:35;95673.75;;;11.64;56.27
24160;BME280;62385;41.594;23.808;2023-04-09T07:15:04;95680.97;;;11.55;55.18
24160;BME280;62385;41.594;23.808;2023-04-09T07:17:34;95676.19;;;11.42;56.61
24160;BME280;62385;41.594;23.808;2023-04-09T07:20:00;95670.00;;;11.58;56.24
24160;BME280;62385;41.594;23.808;2023-04-09T07:22:28;95668.16;;;11.58;56.64
24160;BME280;62385;41.594;23.808;2023-04-09T07:24:55;95668.31;;;11.57;55.73
24160;BME280;62385;41.594;23.808;2023-04-09T07:27:26;95666.63;;;11.64;53.14
24160;BME280;62385;41.594;23.808;2023-04-09T07:29:56;95670.53;;;11.45;57.09
24160;BME280;62385;41.594;23.808;2023-04-09T07:32:24;95667.88;;;11.92;55.70
24160;BME280;62385;41.594;23.808;2023-04-09T07:34:51;95669.47;;;12.01;55.57
24160;BME280;62385;41.594;23.808;2023-04-09T07:37:17;95669.91;;;12.13;55.27
24160;BME280;62385;41.594;23.808;2023-04-09T07:39:43;95663.00;;;12.49;53.86
24160;BME280;62385;41.594;23.808;2023-04-09T07:42:09;95664.97;;;12.02;54.43
24160;BME280;62385;41.594;23.808;2023-04-09T07:44:35;95665.31;;;12.30;54.32
24160;BME280;62385;41.594;23.808;2023-04-09T07:47:06;95660.38;;;12.64;52.51
24160;BME280;62385;41.594;23.808;2023-04-09T07:49:32;95649.09;;;12.62;52.75
24160;BME280;62385;41.594;23.808;2023-04-09T07:51:59;95648.69;;;13.40;50.39
24160;BME280;62385;41.594;23.808;2023-04-09T07:54:25;95649.25;;;13.21;50.64
24160;BME280;62385;41.594;23.808;2023-04-09T07:56:50;95650.16;;;13.57;49.66
24160;BME280;62385;41.594;23.808;2023-04-09T07:59:16;95649.94;;;13.29;49.90
24160;BME280;62385;41.594;23.808;2023-04-09T08:01:42;95641.22;;;13.50;49.04
24160;BME280;62385;41.594;23.808;2023-04-09T08:04:09;95637.03;;;13.92;47.33
24160;BME280;62385;41.594;23.808;2023-04-09T08:06:36;95642.13;;;13.13;49.29
24160;BME280;62385;41.594;23.808;2023-04-09T08:09:02;95638.28;;;13.16;50.21
24160;BME280;62385;41.594;23.808;2023-04-09T08:11:27;95639.94;;;13.61;48.40
24160;BME280;62385;41.594;23.808;2023-04-09T08:13:54;95638.19;;;13.24;49.00
24160;BME280;62385;41.594;23.808;2023-04-09T08:16:20;95637.25;;;13.46;47.94
24160;BME280;62385;41.594;23.808;2023-04-09T08:18:48;95637.06;;;13.04;50.68
24160;BME280;62385;41.594;23.808;2023-04-09T08:21:14;95648.22;;;13.22;50.22
24160;BME280;62385;41.594;23.808;2023-04-09T08:23:39;95649.78;;;13.16;51.22
24160;BME280;62385;41.594;23.808;2023-04-09T08:26:05;95639.03;;;13.54;49.80
24160;BME280;62385;41.594;23.808;2023-04-09T08:28:31;95642.53;;;14.26;46.73
24160;BME280;62385;41.594;23.808;2023-04-09T08:30:57;95643.34;;;13.69;47.46
24160;BME280;62385;41.594;23.808;2023-04-09T08:33:22;95632.53;;;14.70;44.57
24160;BME280;62385;41.594;23.808;2023-04-09T08:35:48;95627.84;;;14.51;44.71
24160;BME280;62385;41.594;23.808;2023-04-09T08:38:13;95626.41;;;14.34;44.44
24160;BME280;62385;41.594;23.808;2023-04-09T08:40:40;95626.28;;;14.85;43.62
24160;BME280;62385;41.594;23.808;2023-04-09T08:43:07;95623.75;;;15.04;41.81
24160;BME280;62385;41.594;23.808;2023-04-09T08:45:33;95614.28;;;16.18;40.14
24160;BME280;62385;41.594;23.808;2023-04-09T08:48:01;95606.19;;;15.23;40.68
24160;BME280;62385;41.594;23.808;2023-04-09T08:50:29;95606.19;;;15.23;42.99
24160;BME280;62385;41.594;23.808;2023-04-09T08:52:57;95598.56;;;15.54;41.43
24160;BME280;62385;41.594;23.808;2023-04-09T08:55:23;95608.56;;;15.80;43.09
24160;BME280;62385;41.594;23.808;2023-04-09T08:57:49;95596.31;;;15.51;42.50
24160;BME280;62385;41.594;23.808;2023-04-09T09:00:14;95603.66;;;14.87;44.20
24160;BME280;62385;41.594;23.808;2023-04-09T09:03:12;95610.13;;;14.50;43.14
24160;BME280;62385;41.594;23.808;2023-04-09T09:05:43;95604.88;;;14.57;43.53
24160;BME280;62385;41.594;23.808;2023-04-09T09:08:23;95590.50;;;15.48;41.27
24160;BME280;62385;41.594;23.808;2023-04-09T09:10:51;95592.66;;;15.31;40.49
24160;BME280;62385;41.594;23.808;2023-04-09T09:13:20;95609.03;;;15.15;41.68
24160;BME280;62385;41.594;23.808;2023-04-09T09:15:47;95598.59;;;15.27;41.62
24160;BME280;62385;41.594;23.808;2023-04-09T09:18:16;95581.47;;;15.21;41.33
24160;BME280;62385;41.594;23.808;2023-04-09T09:20:42;95597.81;;;15.74;40.39
24160;BME280;62385;41.594;23.808;2023-04-09T09:23:08;95586.44;;;16.06;39.71
24160;BME280;62385;41.594;23.808;2023-04-09T09:25:40;95595.84;;;15.89;39.85
24160;BME280;62385;41.594;23.808;2023-04-09T09:28:08;95585.38;;;16.07;39.96
24160;BME280;62385;41.594;23.808;2023-04-09T09:30:35;95588.53;;;16.30;39.79
24160;BME280;62385;41.594;23.808;2023-04-09T09:33:09;95583.63;;;15.73;40.16
24160;BME280;62385;41.594;23.808;2023-04-09T09:35:53;95583.00;;;15.71;39.31
24160;BME280;62385;41.594;23.808;2023-04-09T09:38:22;95584.31;;;15.13;39.58
24160;BME280;62385;41.594;23.808;2023-04-09T09:40:48;95577.81;;;15.56;39.07
24160;BME280;62385;41.594;23.808;2023-04-09T09:43:13;95565.44;;;16.36;38.38
24160;BME280;62385;41.594;23.808;2023-04-09T09:45:40;95572.03;;;16.33;38.75
24160;BME280;62385;41.594;23.808;2023-04-09T09:48:09;95564.25;;;16.58;39.62
24160;BME280;62385;41.594;23.808;2023-04-09T09:50:36;95570.34;;;16.12;40.34
24160;BME280;62385;41.594;23.808;2023-04-09T09:53:07;95561.16;;;16.54;39.00
24160;BME280;62385;41.594;23.808;2023-04-09T09:55:36;95571.44;;;17.17;37.26
24160;BME280;62385;41.594;23.808;2023-04-09T09:58:16;95567.56;;;17.06;36.97
24160;BME280;62385;41.594;23.808;2023-04-09T10:00:45;95564.88;;;16.93;37.53
24160;BME280;62385;41.594;23.808;2023-04-09T10:03:14;95558.50;;;16.68;38.16
24160;BME280;62385;41.594;23.808;2023-04-09T10:05:40;95566.28;;;16.36;37.59
24160;BME280;62385;41.594;23.808;2023-04-09T10:08:06;95551.66;;;16.98;36.94
24160;BME280;62385;41.594;23.808;2023-04-09T10:10:33;95550.53;;;15.87;38.76
24160;BME280;62385;41.594;23.808;2023-04-09T10:12:59;95544.47;;;15.65;40.89
24160;BME280;62385;41.594;23.808;2023-04-09T10:15:27;95544.41;;;16.20;38.68
24160;BME280;62385;41.594;23.808;2023-04-09T10:17:53;95535.34;;;16.14;37.85
24160;BME280;62385;41.594;23.808;2023-04-09T10:20:27;95536.81;;;16.23;37.67
24160;BME280;62385;41.594;23.808;2023-04-09T10:22:58;95543.63;;;16.45;38.69
24160;BME280;62385;41.594;23.808;2023-04-09T10:25:27;95534.97;;;16.43;38.19
24160;BME280;62385;41.594;23.808;2023-04-09T10:28:14;95545.66;;;17.22;37.20
24160;BME280;62385;41.594;23.808;2023-04-09T10:30:40;95534.72;;;16.32;38.61
24160;BME280;62385;41.594;23.808;2023-04-09T10:33:21;95533.31;;;16.23;38.81
24160;BME280;62385;41.594;23.808;2023-04-09T10:35:51;95531.66;;;16.87;37.66
24160;BME280;62385;41.594;23.808;2023-04-09T10:38:32;95526.69;;;16.12;41.80
24160;BME280;62385;41.594;23.808;2023-04-09T10:41:09;95523.34;;;17.15;37.08
24160;BME280;62385;41.594;23.808;2023-04-09T10:43:37;95524.97;;;15.85;36.79
24160;BME280;62385;41.594;23.808;2023-04-09T10:46:08;95523.41;;;16.30;37.44
24160;BME280;62385;41.594;23.808;2023-04-09T10:49:06;95517.19;;;17.08;37.03
24160;BME280;62385;41.594;23.808;2023-04-09T10:51:36;95520.50;;;17.10;36.74
24160;BME280;62385;41.594;23.808;2023-04-09T10:54:06;95508.56;;;16.73;37.18
24160;BME280;62385;41.594;23.808;2023-04-09T10:59:37;95506.88;;;17.05;37.45
24160;BME280;62385;41.594;23.808;2023-04-09T11:02:09;95503.84;;;16.42;38.35
24160;BME280;62385;41.594;23.808;2023-04-09T11:07:40;95490.84;;;16.66;37.50
24160;BME280;62385;41.594;23.808;2023-04-09T11:10:08;95497.88;;;16.60;37.44
24160;BME280;62385;41.594;23.808;2023-04-09T11:12:34;95494.31;;;16.99;37.44
24160;BME280;62385;41.594;23.808;2023-04-09T11:14:59;95489.19;;;17.48;36.82
24160;BME280;62385;41.594;23.808;2023-04-09T11:17:25;95496.09;;;15.74;37.61
24160;BME280;62385;41.594;23.808;2023-04-09T11:19:51;95484.88;;;16.77;37.45
24160;BME280;62385;41.594;23.808;2023-04-09T11:22:17;95487.47;;;15.72;38.05
24160;BME280;62385;41.594;23.808;2023-04-09T11:24:43;95488.66;;;15.56;38.34
24160;BME280;62385;41.594;23.808;2023-04-09T11:27:09;95490.59;;;15.95;39.01
24160;BME280;62385;41.594;23.808;2023-04-09T11:29:35;95478.88;;;16.88;37.61
24160;BME280;62385;41.594;23.808;2023-04-09T11:32:01;95479.44;;;17.10;39.20
24160;BME280;62385;41.594;23.808;2023-04-09T11:34:27;95477.97;;;17.14;37.80
24160;BME280;62385;41.594;23.808;2023-04-09T11:36:53;95474.69;;;17.56;37.00
24160;BME280;62385;41.594;23.808;2023-04-09T11:39:19;95473.84;;;17.18;38.39
24160;BME280;62385;41.594;23.808;2023-04-09T11:41:44;95465.69;;;17.88;37.07
24160;BME280;62385;41.594;23.808;2023-04-09T11:44:11;95471.44;;;17.47;37.51
24160;BME280;62385;41.594;23.808;2023-04-09T11:46:37;95471.00;;;17.50;38.17
24160;BME280;62385;41.594;23.808;2023-04-09T11:49:03;95463.19;;;17.87;37.83
24160;BME280;62385;41.594;23.808;2023-04-09T11:51:30;95463.91;;;17.69;39.09
24160;BME280;62385;41.594;23.808;2023-04-09T11:54:01;95467.59;;;17.30;38.13
24160;BME280;62385;41.594;23.808;2023-04-09T11:56:28;95475.16;;;16.49;40.00
24160;BME280;62385;41.594;23.808;2023-04-09T11:58:55;95460.56;;;16.58;40.33
24160;BME280;62385;41.594;23.808;2023-04-09T12:01:21;95472.72;;;16.61;39.97
24160;BME280;62385;41.594;23.808;2023-04-09T12:03:54;95467.16;;;16.43;40.47
24160;BME280;62385;41.594;23.808;2023-04-09T12:06:21;95469.56;;;15.79;41.79
24160;BME280;62385;41.594;23.808;2023-04-09T12:08:51;95469.78;;;15.77;42.15
24160;BME280;62385;41.594;23.808;2023-04-09T12:11:17;95461.97;;;16.54;40.58
24160;BME280;62385;41.594;23.808;2023-04-09T12:13:44;95461.38;;;16.33;40.32
24160;BME280;62385;41.594;23.808;2023-04-09T12:16:11;95454.97;;;16.01;39.63
24160;BME280;62385;41.594;23.808;2023-04-09T12:18:37;95465.31;;;14.89;40.69
24160;BME280;62385;41.594;23.808;2023-04-09T12:21:04;95465.06;;;14.84;40.39
24160;BME280;62385;41.594;23.808;2023-04-09T12:23:30;95460.88;;;15.09;40.44
24160;BME280;62385;41.594;23.808;2023-04-09T12:25:56;95461.59;;;16.18;40.72
24160;BME280;62385;41.594;23.808;2023-04-09T12:28:25;95463.19;;;16.78;38.92
24160;BME280;62385;41.594;23.808;2023-04-09T12:30:51;95454.56;;;16.50;38.23
24160;BME280;62385;41.594;23.808;2023-04-09T12:33:16;95458.06;;;16.24;39.41
24160;BME280;62385;41.594;23.808;2023-04-09T12:35:42;95450.66;;;16.13;40.27
24160;BME280;62385;41.594;23.808;2023-04-09T12:38:08;95456.00;;;16.20;39.88
24160;BME280;62385;41.594;23.808;2023-04-09T12:40:34;95456.63;;;16.28;39.43
24160;BME280;62385;41.594;23.808;2023-04-09T12:43:00;95445.91;;;16.54;39.24
24160;BME280;62385;41.594;23.808;2023-04-09T12:45:26;95428.06;;;17.06;38.05
24160;BME280;62385;41.594;23.808;2023-04-09T12:47:52;95446.31;;;16.12;40.54
24160;BME280;62385;41.594;23.808;2023-04-09T12:50:18;95442.63;;;16.13;39.94
24160;BME280;62385;41.594;23.808;2023-04-09T12:52:43;95438.41;;;16.96;38.33
24160;BME280;62385;41.594;23.808;2023-04-09T12:55:10;95432.31;;;16.16;39.69
24160;BME280;62385;41.594;23.808;2023-04-09T12:57:37;95435.59;;;16.45;39.90
24160;BME280;62385;41.594;23.808;2023-04-09T13:00:03;95439.94;;;15.93;40.21
24160;BME280;62385;41.594;23.808;2023-04-09T13:02:30;95439.94;;;16.26;40.40
24160;BME280;62385;41.594;23.808;2023-04-09T13:04:57;95439.72;;;15.95;40.37
24160;BME280;62385;41.594;23.808;2023-04-09T13:07:22;95429.22;;;16.59;38.50
24160;BME280;62385;41.594;23.808;2023-04-09T13:09:49;95427.34;;;16.66;38.90
24160;BME280;62385;41.594;23.808;2023-04-09T13:12:15;95431.25;;;16.77;37.58
24160;BME280;62385;41.594;23.808;2023-04-09T13:14:43;95426.03;;;17.39;37.71
24160;BME280;62385;41.594;23.808;2023-04-09T13:17:09;95419.91;;;16.75;38.51